sensor_id;sensor_type;location;lat;lon;timestamp;P1;durP1;ratioP1;P2;durP2;ratioP2
25868;SDS011;13688;53.154;18.136;2023-02-28T00:02:45;28.37;;;12.83;;
25868;SDS011;13688;53.154;18.136;2023-02-28T00:08:08;30.73;;;12.20;;
25868;SDS011;13688;53.154;18.136;2023-02-28T00:13:31;28.23;;;11.77;;
25868;SDS011;13688;53.154;18.136;2023-02-28T00:18:56;28.30;;;11.47;;
25868;SDS011;13688;53.154;18.136;2023-02-28T00:24:18;28.07;;;11.90;;
25868;SDS011;13688;53.154;18.136;2023-02-28T00:29:41;33.35;;;12.70;;
25868;SDS011;13688;53.154;18.136;2023-02-28T00:35:04;33.43;;;14.30;;
25868;SDS011;13688;53.154;18.136;2023-02-28T00:40:28;32.83;;;14.43;;
25868;SDS011;13688;53.154;18.136;2023-02-28T00:45:51;32.43;;;14.83;;
25868;SDS011;13688;53.154;18.136;2023-02-28T00:51:14;29.63;;;12.20;;
25868;SDS011;13688;53.154;18.136;2023-02-28T00:56:36;36.40;;;13.80;;
25868;SDS011;13688;53.154;18.136;2023-02-28T01:01:58;34.57;;;13.67;;
25868;SDS011;13688;53.154;18.136;2023-02-28T01:07:22;35.97;;;13.83;;
25868;SDS011;13688;53.154;18.136;2023-02-28T01:12:45;37.30;;;16.30;;
25868;SDS011;13688;53.154;18.136;2023-02-28T01:18:07;33.47;;;14.33;;
25868;SDS011;13688;53.154;18.136;2023-02-28T01:23:30;38.60;;;13.93;;
25868;SDS011;13688;53.154;18.136;2023-02-28T01:28:53;36.73;;;16.27;;
25868;SDS011;13688;53.154;18.136;2023-02-28T01:34:15;35.27;;;14.70;;
25868;SDS011;13688;53.154;18.136;2023-02-28T01:39:38;38.40;;;14.97;;
25868;SDS011;13688;53.154;18.136;2023-02-28T01:45:02;37.03;;;16.13;;
25868;SDS011;13688;53.154;18.136;2023-02-28T01:50:39;38.63;;;15.60;;
25868;SDS011;13688;53.154;18.136;2023-02-28T01:56:05;40.00;;;16.07;;
25868;SDS011;13688;53.154;18.136;2023-02-28T02:01:32;39.67;;;15.90;;
25868;SDS011;13688;53.154;18.136;2023-02-28T02:06:55;38.40;;;15.93;;
25868;SDS011;13688;53.154;18.136;2023-02-28T02:12:29;35.17;;;15.30;;
25868;SDS011;13688;53.154;18.136;2023-02-28T02:18:43;38.47;;;16.30;;
25868;SDS011;13688;53.154;18.136;2023-02-28T02:35:40;37.37;;;16.83;;
25868;SDS011;13688;53.154;18.136;2023-02-28T02:41:27;40.27;;;15.43;;
25868;SDS011;13688;53.154;18.136;2023-02-28T02:47:05;37.47;;;15.80;;
25868;SDS011;13688;53.154;18.136;2023-02-28T02:52:31;43.13;;;17.33;;
25868;SDS011;13688;53.154;18.136;2023-02-28T02:58:01;37.50;;;17.20;;
25868;SDS011;13688;53.154;18.136;2023-02-28T03:03:25;41.23;;;16.10;;
25868;SDS011;13688;53.154;18.136;2023-02-28T03:08:50;39.10;;;15.87;;
25868;SDS011;13688;53.154;18.136;2023-02-28T03:14:22;36.27;;;16.27;;
25868;SDS011;13688;53.154;18.136;2023-02-28T03:20:04;40.33;;;16.30;;
25868;SDS011;13688;53.154;18.136;2023-02-28T03:25:52;47.80;;;16.93;;
25868;SDS011;13688;53.154;18.136;2023-02-28T03:31:33;35.53;;;16.00;;
25868;SDS011;13688;53.154;18.136;2023-02-28T03:37:05;42.53;;;15.77;;
25868;SDS011;13688;53.154;18.136;2023-02-28T03:42:31;39.93;;;16.43;;
25868;SDS011;13688;53.154;18.136;2023-02-28T03:53:31;34.80;;;15.57;;
25868;SDS011;13688;53.154;18.136;2023-02-28T03:59:16;40.70;;;15.83;;
25868;SDS011;13688;53.154;18.136;2023-02-28T04:04:42;41.03;;;17.17;;
25868;SDS011;13688;53.154;18.136;2023-02-28T04:10:04;39.08;;;16.62;;
25868;SDS011;13688;53.154;18.136;2023-02-28T04:15:27;39.83;;;16.85;;
25868;SDS011;13688;53.154;18.136;2023-02-28T04:20:49;38.67;;;16.57;;
25868;SDS011;13688;53.154;18.136;2023-02-28T04:26:13;37.47;;;16.87;;
25868;SDS011;13688;53.154;18.136;2023-02-28T04:31:41;40.23;;;16.90;;
25868;SDS011;13688;53.154;18.136;2023-02-28T04:37:04;37.63;;;16.07;;
25868;SDS011;13688;53.154;18.136;2023-02-28T04:42:28;38.00;;;15.73;;
25868;SDS011;13688;53.154;18.136;2023-02-28T04:47:50;33.73;;;15.43;;
25868;SDS011;13688;53.154;18.136;2023-02-28T04:53:13;39.07;;;16.17;;
25868;SDS011;13688;53.154;18.136;2023-02-28T04:58:35;32.67;;;14.73;;
25868;SDS011;13688;53.154;18.136;2023-02-28T05:03:59;32.07;;;14.07;;
25868;SDS011;13688;53.154;18.136;2023-02-28T05:09:21;36.30;;;14.77;;
25868;SDS011;13688;53.154;18.136;2023-02-28T05:14:43;35.70;;;15.17;;
25868;SDS011;13688;53.154;18.136;2023-02-28T05:20:06;37.33;;;15.87;;
25868;SDS011;13688;53.154;18.136;2023-02-28T05:25:29;31.93;;;13.30;;
25868;SDS011;13688;53.154;18.136;2023-02-28T05:30:51;35.37;;;14.47;;
25868;SDS011;13688;53.154;18.136;2023-02-28T05:36:14;31.07;;;13.63;;
25868;SDS011;13688;53.154;18.136;2023-02-28T05:41:36;29.17;;;13.97;;
25868;SDS011;13688;53.154;18.136;2023-02-28T05:46:59;31.63;;;14.33;;
25868;SDS011;13688;53.154;18.136;2023-02-28T05:52:21;28.05;;;13.00;;
25868;SDS011;13688;53.154;18.136;2023-02-28T05:57:44;35.40;;;14.67;;
25868;SDS011;13688;53.154;18.136;2023-02-28T06:03:07;31.57;;;14.17;;
25868;SDS011;13688;53.154;18.136;2023-02-28T06:08:29;30.83;;;14.27;;
25868;SDS011;13688;53.154;18.136;2023-02-28T06:14:00;30.77;;;13.90;;
25868;SDS011;13688;53.154;18.136;2023-02-28T06:19:25;29.63;;;13.77;;
25868;SDS011;13688;53.154;18.136;2023-02-28T06:24:48;32.90;;;14.03;;
25868;SDS011;13688;53.154;18.136;2023-02-28T06:30:10;32.97;;;14.47;;
25868;SDS011;13688;53.154;18.136;2023-02-28T06:35:44;28.77;;;12.40;;
25868;SDS011;13688;53.154;18.136;2023-02-28T06:41:07;28.83;;;13.43;;
25868;SDS011;13688;53.154;18.136;2023-02-28T06:46:33;33.67;;;14.77;;
25868;SDS011;13688;53.154;18.136;2023-02-28T06:51:56;29.83;;;13.77;;
25868;SDS011;13688;53.154;18.136;2023-02-28T06:57:20;39.83;;;15.33;;
25868;SDS011;13688;53.154;18.136;2023-02-28T07:02:46;35.17;;;15.73;;
25868;SDS011;13688;53.154;18.136;2023-02-28T07:08:09;36.67;;;16.10;;
25868;SDS011;13688;53.154;18.136;2023-02-28T07:13:32;38.27;;;17.03;;
25868;SDS011;13688;53.154;18.136;2023-02-28T07:18:54;40.87;;;18.17;;
25868;SDS011;13688;53.154;18.136;2023-02-28T07:24:17;43.30;;;19.00;;
25868;SDS011;13688;53.154;18.136;2023-02-28T07:29:39;44.03;;;20.60;;
25868;SDS011;13688;53.154;18.136;2023-02-28T07:35:05;47.00;;;20.20;;
25868;SDS011;13688;53.154;18.136;2023-02-28T07:40:28;44.50;;;20.40;;
25868;SDS011;13688;53.154;18.136;2023-02-28T07:45:51;43.80;;;19.80;;
25868;SDS011;13688;53.154;18.136;2023-02-28T07:51:19;48.10;;;20.70;;
25868;SDS011;13688;53.154;18.136;2023-02-28T07:56:42;41.53;;;20.97;;
25868;SDS011;13688;53.154;18.136;2023-02-28T08:02:05;41.43;;;19.63;;
25868;SDS011;13688;53.154;18.136;2023-02-28T08:07:31;40.30;;;20.73;;
25868;SDS011;13688;53.154;18.136;2023-02-28T08:12:54;40.40;;;21.10;;
25868;SDS011;13688;53.154;18.136;2023-02-28T08:18:16;52.03;;;22.80;;
25868;SDS011;13688;53.154;18.136;2023-02-28T08:23:39;52.97;;;22.27;;
25868;SDS011;13688;53.154;18.136;2023-02-28T08:29:05;48.73;;;23.63;;
25868;SDS011;13688;53.154;18.136;2023-02-28T08:34:28;45.93;;;23.60;;
25868;SDS011;13688;53.154;18.136;2023-02-28T08:39:50;39.87;;;22.20;;
25868;SDS011;13688;53.154;18.136;2023-02-28T08:45:13;41.43;;;22.20;;
25868;SDS011;13688;53.154;18.136;2023-02-28T08:50:39;46.00;;;21.97;;
25868;SDS011;13688;53.154;18.136;2023-02-28T08:56:09;36.10;;;17.10;;
25868;SDS011;13688;53.154;18.136;2023-02-28T09:01:32;36.17;;;18.13;;
25868;SDS011;13688;53.154;18.136;2023-02-28T09:06:55;42.33;;;23.07;;
25868;SDS011;13688;53.154;18.136;2023-02-28T09:12:20;30.67;;;14.33;;
25868;SDS011;13688;53.154;18.136;2023-02-28T09:17:45;30.63;;;14.07;;
25868;SDS011;13688;53.154;18.136;2023-02-28T09:23:08;27.27;;;13.87;;
25868;SDS011;13688;53.154;18.136;2023-02-28T09:28:31;27.13;;;12.90;;
25868;SDS011;13688;53.154;18.136;2023-02-28T09:33:55;23.60;;;12.17;;
25868;SDS011;13688;53.154;18.136;2023-02-28T09:39:22;28.02;;;12.28;;
25868;SDS011;13688;53.154;18.136;2023-02-28T09:44:44;24.77;;;13.50;;
25868;SDS011;13688;53.154;18.136;2023-02-28T09:50:55;22.97;;;11.93;;
25868;SDS011;13688;53.154;18.136;2023-02-28T09:55:47;26.33;;;11.53;;
25868;SDS011;13688;53.154;18.136;2023-02-28T10:01:37;27.93;;;14.23;;
25868;SDS011;13688;53.154;18.136;2023-02-28T10:07:55;21.80;;;11.03;;
25868;SDS011;13688;53.154;18.136;2023-02-28T10:12:54;22.87;;;11.97;;
25868;SDS011;13688;53.154;18.136;2023-02-28T10:18:25;20.97;;;10.53;;
25868;SDS011;13688;53.154;18.136;2023-02-28T10:23:52;20.40;;;10.37;;
25868;SDS011;13688;53.154;18.136;2023-02-28T10:29:24;18.03;;;8.53;;
25868;SDS011;13688;53.154;18.136;2023-02-28T10:34:58;13.37;;;6.50;;
25868;SDS011;13688;53.154;18.136;2023-02-28T10:40:33;13.87;;;6.03;;
25868;SDS011;13688;53.154;18.136;2023-02-28T10:46:11;11.20;;;5.40;;
25868;SDS011;13688;53.154;18.136;2023-02-28T10:51:36;11.22;;;5.92;;
25868;SDS011;13688;53.154;18.136;2023-02-28T10:57:08;13.40;;;4.87;;
25868;SDS011;13688;53.154;18.136;2023-02-28T11:02:34;18.37;;;7.00;;
25868;SDS011;13688;53.154;18.136;2023-02-28T11:08:02;14.30;;;5.83;;
25868;SDS011;13688;53.154;18.136;2023-02-28T11:13:32;14.60;;;6.08;;
25868;SDS011;13688;53.154;18.136;2023-02-28T11:18:54;14.97;;;6.93;;
25868;SDS011;13688;53.154;18.136;2023-02-28T11:24:26;11.15;;;5.72;;
25868;SDS011;13688;53.154;18.136;2023-02-28T11:29:51;13.38;;;5.72;;
25868;SDS011;13688;53.154;18.136;2023-02-28T11:35:26;13.27;;;5.83;;
25868;SDS011;13688;53.154;18.136;2023-02-28T11:46:32;14.00;;;6.80;;
25868;SDS011;13688;53.154;18.136;2023-02-28T11:52:10;14.47;;;6.65;;
25868;SDS011;13688;53.154;18.136;2023-02-28T11:57:55;14.38;;;7.53;;
25868;SDS011;13688;53.154;18.136;2023-02-28T12:03:37;15.37;;;6.70;;
25868;SDS011;13688;53.154;18.136;2023-02-28T12:09:09;13.30;;;6.90;;
25868;SDS011;13688;53.154;18.136;2023-02-28T12:15:02;15.17;;;7.10;;
25868;SDS011;13688;53.154;18.136;2023-02-28T12:26:46;13.90;;;6.17;;
25868;SDS011;13688;53.154;18.136;2023-02-28T12:43:33;8.05;;;4.55;;
25868;SDS011;13688;53.154;18.136;2023-02-28T12:49:02;10.48;;;4.22;;
25868;SDS011;13688;53.154;18.136;2023-02-28T13:00:19;9.03;;;4.15;;
25868;SDS011;13688;53.154;18.136;2023-02-28T13:11:40;7.90;;;4.07;;
25868;SDS011;13688;53.154;18.136;2023-02-28T13:22:44;6.83;;;3.33;;
25868;SDS011;13688;53.154;18.136;2023-02-28T13:28:09;7.42;;;4.15;;
25868;SDS011;13688;53.154;18.136;2023-02-28T13:50:39;6.83;;;3.92;;
25868;SDS011;13688;53.154;18.136;2023-02-28T13:56:10;8.45;;;3.60;;
25868;SDS011;13688;53.154;18.136;2023-02-28T14:19:01;6.72;;;3.33;;
25868;SDS011;13688;53.154;18.136;2023-02-28T14:24:42;7.22;;;3.80;;
25868;SDS011;13688;53.154;18.136;2023-02-28T14:30:42;6.97;;;3.73;;
25868;SDS011;13688;53.154;18.136;2023-02-28T14:36:21;6.53;;;3.67;;
25868;SDS011;13688;53.154;18.136;2023-02-28T14:41:46;9.13;;;3.63;;
25868;SDS011;13688;53.154;18.136;2023-02-28T14:47:14;7.87;;;4.10;;
25868;SDS011;13688;53.154;18.136;2023-02-28T14:52:37;5.87;;;3.13;;
25868;SDS011;13688;53.154;18.136;2023-02-28T14:58:03;9.15;;;4.25;;
25868;SDS011;13688;53.154;18.136;2023-02-28T15:03:43;7.83;;;4.60;;
25868;SDS011;13688;53.154;18.136;2023-02-28T15:09:18;8.55;;;4.67;;
25868;SDS011;13688;53.154;18.136;2023-02-28T15:14:42;8.90;;;4.47;;
25868;SDS011;13688;53.154;18.136;2023-02-28T15:20:10;9.73;;;4.08;;
25868;SDS011;13688;53.154;18.136;2023-02-28T15:25:31;7.62;;;4.25;;
25868;SDS011;13688;53.154;18.136;2023-02-28T15:30:57;8.40;;;4.55;;
25868;SDS011;13688;53.154;18.136;2023-02-28T15:36:34;8.28;;;4.55;;
25868;SDS011;13688;53.154;18.136;2023-02-28T15:47:44;9.83;;;5.08;;
25868;SDS011;13688;53.154;18.136;2023-02-28T15:53:12;8.43;;;5.00;;
25868;SDS011;13688;53.154;18.136;2023-02-28T15:58:34;12.57;;;5.33;;
25868;SDS011;13688;53.154;18.136;2023-02-28T16:03:59;8.93;;;5.13;;
25868;SDS011;13688;53.154;18.136;2023-02-28T16:09:35;6.67;;;4.60;;
25868;SDS011;13688;53.154;18.136;2023-02-28T16:14:59;8.57;;;4.50;;
25868;SDS011;13688;53.154;18.136;2023-02-28T16:20:30;10.40;;;5.10;;
25868;SDS011;13688;53.154;18.136;2023-02-28T16:25:53;9.90;;;5.07;;
25868;SDS011;13688;53.154;18.136;2023-02-28T16:31:16;9.05;;;4.92;;
25868;SDS011;13688;53.154;18.136;2023-02-28T16:36:38;13.40;;;5.30;;
25868;SDS011;13688;53.154;18.136;2023-02-28T16:42:04;9.77;;;4.57;;
25868;SDS011;13688;53.154;18.136;2023-02-28T16:47:36;9.23;;;4.87;;
25868;SDS011;13688;53.154;18.136;2023-02-28T16:52:58;12.27;;;4.80;;
25868;SDS011;13688;53.154;18.136;2023-02-28T16:58:21;11.55;;;5.53;;
25868;SDS011;13688;53.154;18.136;2023-02-28T17:03:44;15.00;;;5.17;;
25868;SDS011;13688;53.154;18.136;2023-02-28T17:09:14;9.73;;;4.97;;
25868;SDS011;13688;53.154;18.136;2023-02-28T17:14:37;8.77;;;4.07;;
25868;SDS011;13688;53.154;18.136;2023-02-28T17:20:01;9.05;;;4.35;;
25868;SDS011;13688;53.154;18.136;2023-02-28T17:25:27;10.85;;;4.62;;
25868;SDS011;13688;53.154;18.136;2023-02-28T17:30:51;9.80;;;5.08;;
25868;SDS011;13688;53.154;18.136;2023-02-28T17:36:15;9.75;;;4.95;;
25868;SDS011;13688;53.154;18.136;2023-02-28T17:41:40;12.47;;;5.93;;
25868;SDS011;13688;53.154;18.136;2023-02-28T17:47:04;10.33;;;5.73;;
25868;SDS011;13688;53.154;18.136;2023-02-28T17:52:28;12.30;;;5.97;;
25868;SDS011;13688;53.154;18.136;2023-02-28T17:57:51;26.87;;;12.10;;
25868;SDS011;13688;53.154;18.136;2023-02-28T18:03:13;22.65;;;10.38;;
25868;SDS011;13688;53.154;18.136;2023-02-28T18:08:36;31.62;;;11.90;;
25868;SDS011;13688;53.154;18.136;2023-02-28T18:14:00;32.73;;;16.45;;
25868;SDS011;13688;53.154;18.136;2023-02-28T18:19:24;24.97;;;11.10;;
25868;SDS011;13688;53.154;18.136;2023-02-28T18:24:47;30.67;;;13.57;;
25868;SDS011;13688;53.154;18.136;2023-02-28T18:30:11;30.17;;;14.00;;
25868;SDS011;13688;53.154;18.136;2023-02-28T18:35:37;28.70;;;14.40;;
25868;SDS011;13688;53.154;18.136;2023-02-28T18:41:03;34.50;;;15.35;;
25868;SDS011;13688;53.154;18.136;2023-02-28T18:46:28;30.80;;;15.70;;
25868;SDS011;13688;53.154;18.136;2023-02-28T18:51:52;42.55;;;18.27;;
25868;SDS011;13688;53.154;18.136;2023-02-28T18:57:14;63.23;;;29.90;;
25868;SDS011;13688;53.154;18.136;2023-02-28T19:02:38;79.07;;;39.25;;
25868;SDS011;13688;53.154;18.136;2023-02-28T19:08:01;57.00;;;26.93;;
25868;SDS011;13688;53.154;18.136;2023-02-28T19:13:25;47.95;;;22.87;;
25868;SDS011;13688;53.154;18.136;2023-02-28T19:18:49;51.93;;;24.63;;
25868;SDS011;13688;53.154;18.136;2023-02-28T19:24:12;53.40;;;22.70;;
25868;SDS011;13688;53.154;18.136;2023-02-28T19:29:35;60.97;;;28.17;;
25868;SDS011;13688;53.154;18.136;2023-02-28T19:35:02;54.73;;;25.57;;
25868;SDS011;13688;53.154;18.136;2023-02-28T19:40:26;64.97;;;30.90;;
25868;SDS011;13688;53.154;18.136;2023-02-28T19:45:51;65.70;;;30.63;;
25868;SDS011;13688;53.154;18.136;2023-02-28T19:51:15;67.90;;;30.80;;
25868;SDS011;13688;53.154;18.136;2023-02-28T19:56:40;70.37;;;32.80;;
25868;SDS011;13688;53.154;18.136;2023-02-28T20:02:05;74.73;;;33.37;;
25868;SDS011;13688;53.154;18.136;2023-02-28T20:07:34;83.37;;;40.77;;
25868;SDS011;13688;53.154;18.136;2023-02-28T20:12:58;74.83;;;34.03;;
25868;SDS011;13688;53.154;18.136;2023-02-28T20:18:24;82.42;;;35.00;;
25868;SDS011;13688;53.154;18.136;2023-02-28T20:23:49;75.45;;;35.38;;
25868;SDS011;13688;53.154;18.136;2023-02-28T20:29:13;78.47;;;35.37;;
25868;SDS011;13688;53.154;18.136;2023-02-28T20:34:37;76.50;;;32.30;;
25868;SDS011;13688;53.154;18.136;2023-02-28T20:40:01;79.27;;;33.93;;
25868;SDS011;13688;53.154;18.136;2023-02-28T20:45:25;81.90;;;34.50;;
25868;SDS011;13688;53.154;18.136;2023-02-28T20:50:49;75.35;;;31.82;;
25868;SDS011;13688;53.154;18.136;2023-02-28T20:56:16;75.00;;;32.70;;
25868;SDS011;13688;53.154;18.136;2023-02-28T21:01:41;76.92;;;33.02;;
25868;SDS011;13688;53.154;18.136;2023-02-28T21:07:06;78.73;;;33.63;;
25868;SDS011;13688;53.154;18.136;2023-02-28T21:12:31;91.97;;;37.37;;
25868;SDS011;13688;53.154;18.136;2023-02-28T21:17:58;87.87;;;34.97;;
25868;SDS011;13688;53.154;18.136;2023-02-28T21:23:22;88.50;;;37.93;;
25868;SDS011;13688;53.154;18.136;2023-02-28T21:28:53;87.88;;;38.55;;
25868;SDS011;13688;53.154;18.136;2023-02-28T21:34:18;99.23;;;42.77;;
25868;SDS011;13688;53.154;18.136;2023-02-28T21:39:44;96.67;;;41.27;;
25868;SDS011;13688;53.154;18.136;2023-02-28T21:45:08;101.13;;;40.47;;
25868;SDS011;13688;53.154;18.136;2023-02-28T21:50:33;97.43;;;39.37;;
25868;SDS011;13688;53.154;18.136;2023-02-28T21:56:19;95.93;;;39.03;;
25868;SDS011;13688;53.154;18.136;2023-02-28T22:01:48;89.93;;;37.13;;
25868;SDS011;13688;53.154;18.136;2023-02-28T22:07:13;86.73;;;37.00;;
25868;SDS011;13688;53.154;18.136;2023-02-28T22:12:37;96.23;;;39.30;;
25868;SDS011;13688;53.154;18.136;2023-02-28T22:18:01;95.57;;;40.90;;
25868;SDS011;13688;53.154;18.136;2023-02-28T22:23:26;113.30;;;44.67;;
25868;SDS011;13688;53.154;18.136;2023-02-28T22:28:52;123.87;;;47.23;;
25868;SDS011;13688;53.154;18.136;2023-02-28T22:34:16;126.13;;;49.00;;
25868;SDS011;13688;53.154;18.136;2023-02-28T22:39:41;113.73;;;45.10;;
25868;SDS011;13688;53.154;18.136;2023-02-28T22:45:06;109.50;;;42.37;;
25868;SDS011;13688;53.154;18.136;2023-02-28T22:50:30;104.03;;;41.57;;
25868;SDS011;13688;53.154;18.136;2023-02-28T22:55:55;100.37;;;38.73;;
25868;SDS011;13688;53.154;18.136;2023-02-28T23:01:21;92.60;;;38.33;;
25868;SDS011;13688;53.154;18.136;2023-02-28T23:06:47;100.00;;;38.93;;
25868;SDS011;13688;53.154;18.136;2023-02-28T23:12:12;88.50;;;38.27;;
25868;SDS011;13688;53.154;18.136;2023-02-28T23:17:36;97.50;;;38.10;;
25868;SDS011;13688;53.154;18.136;2023-02-28T23:23:01;87.70;;;35.55;;
25868;SDS011;13688;53.154;18.136;2023-02-28T23:28:26;97.10;;;40.05;;
25868;SDS011;13688;53.154;18.136;2023-02-28T23:33:51;97.20;;;40.80;;
25868;SDS011;13688;53.154;18.136;2023-02-28T23:39:16;98.67;;;40.37;;
25868;SDS011;13688;53.154;18.136;2023-02-28T23:44:40;98.20;;;40.65;;
25868;SDS011;13688;53.154;18.136;2023-02-28T23:50:06;95.38;;;40.12;;
25868;SDS011;13688;53.154;18.136;2023-02-28T23:55:29;94.62;;;38.50;;
